Buoy 16575

sailwx.info

Track history (hours):
 
Tides and Currents Weather Stations Pressure Air Temp Water Temp Dewpoint Dewpoint Depression Visibility Wind Speed Wind Dir Waves Ship Positions

Drifting buoy 16575

Last reported at 2014-Dec-20 02:00 UTC. Time now 2014-Dec-20 04:23 UTC.
Position S 29°18' E 056°22'.

Barometer 1020.8 mb
Water temperature 24.4 ° C

Date/timePositionNaut miles runAvg speedWind from/ knotsBaromVisibWave heightAir tempDewpointWater temp
2014-Dec-20 02:00S 29°18' E 056°22'0 0.4 1020.8 24.4
2014-Dec-20 01:00S 29°18' E 056°23'2 1.6 1015.4 24.4
2014-Dec-20 00:00S 29°18' E 056°24'2 0.9 1015.5 24.4
2014-Dec-19 22:00S 29°18' E 056°26'1 1.0 1015.7 24.4
2014-Dec-19 21:00S 29°18' E 056°28'0 0.0 1016.1 24.5
2014-Dec-19 20:00S 29°18' E 056°28'2 1.0 1016.2 24.5
2014-Dec-19 18:00S 29°19' E 056°29'0 0.4 1016.4 24.7
2014-Dec-19 17:00S 29°20' E 056°30'0 0.1 1015.4 24.8
2014-Dec-19 16:00S 29°20' E 056°30'1 1.4 1012.3 24.8
2014-Dec-19 15:00S 29°20' E 056°31'1 0.6 1006.2 24.8
2014-Dec-19 14:00S 29°21' E 056°32'1 0.7 1012.5 24.8
2014-Dec-19 13:00S 29°21' E 056°32'0 0.2 1002.0 25.0
2014-Dec-19 12:00S 29°21' E 056°32'1 0.5 1014.0 25.0
2014-Dec-19 10:00S 29°21' E 056°33'1 1.1 1016.7 24.9
2014-Dec-19 09:00S 29°22' E 056°32'1 1.3 1016.6 24.8
2014-Dec-19 08:00S 29°21' E 056°32'1 0.5 1014.2 24.7
2014-Dec-19 06:00S 29°20' E 056°32'0 0.5 1018.9 24.4
2014-Dec-19 05:00S 29°20' E 056°32'1 0.8 1018.0 24.4
2014-Dec-19 04:00S 29°20' E 056°33'1 1.2 1016.7 24.3
2014-Dec-19 03:00S 29°20' E 056°34'0 0.3 1023.0 24.2
2014-Dec-19 02:00S 29°20' E 056°34'1 0.5 1022.7 24.1
2014-Dec-19 01:00S 29°19' E 056°34'1 0.9 1013.1 24.1
2014-Dec-19 00:00S 29°19' E 056°35'2 0.8 1013.0 24.2
2014-Dec-18 22:00S 29°19' E 056°37'1 1.0 1013.6 24.2
2014-Dec-18 21:00S 29°19' E 056°38'0 0.5 1014.0 24.2
2014-Dec-18 20:00S 29°19' E 056°38'2 0.8 1014.4 24.3
2014-Dec-18 17:00S 29°21' E 056°41'2 0.7 1013.4 24.4
2014-Dec-18 14:00S 29°22' E 056°43'0 0.4 1007.1 24.7
2014-Dec-18 13:00S 29°22' E 056°43'1 0.8 1010.1 24.7
2014-Dec-18 12:00S 29°23' E 056°43'0 0.1 1008.3 24.8
2014-Dec-18 11:00S 29°23' E 056°43'1 0.5 1013.9 24.8
2014-Dec-18 10:00S 29°23' E 056°43'1 0.5 1010.3 24.8
2014-Dec-18 09:00S 29°22' E 056°43'1 0.3 1014.3 24.7
2014-Dec-18 06:00S 29°22' E 056°44'1 1.1 1020.5 24.4
2014-Dec-18 05:00S 29°21' E 056°44'1 0.5 1010.5 24.3
2014-Dec-18 04:00S 29°21' E 056°44'0 0.0 1016.7 24.3
2014-Dec-18 03:00S 29°21' E 056°44'2 0.9 1019.0 24.2
2014-Dec-18 01:00S 29°20' E 056°45'1 1.3 1011.2 24.2
2014-Dec-18 00:00S 29°19' E 056°47'2 0.9 1011.5 24.2
2014-Dec-17 22:00S 29°19' E 056°49'1 1.1 1011.3 24.2
2014-Dec-17 21:00S 29°19' E 056°50'0 0.1 1012.9 24.3
2014-Dec-17 20:00S 29°19' E 056°50'2 2.1 1012.5 24.3
2014-Dec-17 19:00S 29°20' E 056°52'0 0.3 1013.7 24.3
2014-Dec-17 18:00S 29°20' E 056°52'1 0.8 1013.9 24.4
2014-Dec-17 17:00S 29°21' E 056°52'1 0.9 1013.6 24.4
2014-Dec-17 16:00S 29°22' E 056°52'0 0.3 1013.0 24.4
2014-Dec-17 15:00S 29°22' E 056°52'0 0.4 1012.9 24.4
2014-Dec-17 14:00S 29°23' E 056°52'1 0.6 1011.4 24.4
2014-Dec-17 12:40S 29°23' E 056°51'0 0.5 1013.4 24.4
2014-Dec-17 12:00S 29°23' E 056°51'0 0.0 1009.7 24.5
2014-Dec-17 11:00S 29°23' E 056°51'3 1.5 1011.2 24.6
2014-Dec-17 09:00S 29°20' E 056°52'1 0.3 1008.6 24.7
2014-Dec-17 06:00S 29°20' E 056°53'2 1.6 1013.2 24.4
2014-Dec-17 05:00S 29°19' E 056°55'0 0.0 1020.1 24.4
2014-Dec-17 04:00S 29°19' E 056°55'1 1.3 1020.7 24.4
2014-Dec-17 03:00S 29°19' E 056°56'0 0.4 1016.7 24.4
2014-Dec-17 02:00S 29°19' E 056°57'0 0.5 1016.1 24.4
2014-Dec-17 01:00S 29°19' E 056°57'1 0.7 1013.7 24.4
2014-Dec-17 00:00S 29°19' E 056°58'1 0.7 1013.4 24.4
2014-Dec-16 22:00S 29°19' E 056°60'1 1.2 1014.8 24.4
2014-Dec-16 21:00S 29°20' E 057°01'0 0.2 1015.0 24.4
2014-Dec-16 20:00S 29°20' E 057°01'2 2.1 1015.1 24.4
2014-Dec-16 19:00S 29°22' E 057°02'0 0.0 1015.5 24.4
2014-Dec-16 18:00S 29°22' E 057°02'7 0.4 1015.3 24.4
2014-Dec-15 23:00S 29°22' E 056°55'0 0.0 1016.1 24.2
2014-Dec-15 22:00S 29°22' E 056°55'1 1.2 1016.3 24.2
2014-Dec-15 21:00S 29°22' E 056°56'1 0.8 1016.9 24.2
2014-Dec-15 20:00S 29°22' E 056°56'1 0.4 1017.7 24.2
2014-Dec-15 18:00S 29°23' E 056°57'0 0.0 1017.6 24.3
2014-Dec-15 17:00S 29°23' E 056°57'1 0.6 1017.7 24.3
2014-Dec-15 16:00S 29°23' E 056°57'0 0.0 1016.8 24.3
2014-Dec-15 15:00S 29°23' E 056°57'0 0.0 1015.9 24.4
2014-Dec-15 14:00S 29°23' E 056°57'1 0.8 1014.3 24.4
2014-Dec-15 13:00S 29°24' E 056°56'1 1.0 1013.3 24.4
2014-Dec-15 12:00S 29°24' E 056°55'2 1.6 1013.8 24.4
2014-Dec-15 11:00S 29°23' E 056°54'0 0.0 1014.2 24.3
2014-Dec-15 10:00S 29°23' E 056°54'0 0.0 1014.4 24.3
2014-Dec-15 09:00S 29°23' E 056°54'2 2.4 1016.2 24.2
2014-Dec-15 08:00S 29°20' E 056°54'1 0.4 1019.0 24.2
2014-Dec-15 06:00S 29°20' E 056°55'1 0.6 1023.2 24.0
2014-Dec-15 05:00S 29°19' E 056°55'2 1.6 1018.5 23.9
2014-Dec-15 04:00S 29°18' E 056°56'0 0.0 1016.9 23.9
2014-Dec-15 03:00S 29°18' E 056°56'2 1.6 1016.8 23.9
2014-Dec-15 02:00S 29°17' E 056°57'2 1.7 1016.8 24.0
2014-Dec-15 01:00S 29°16' E 056°59'0 0.0 1015.9 24.0
2014-Dec-15 00:00S 29°16' E 056°59'1 1.2 1016.4 24.2
2014-Dec-14 23:00S 29°16' E 057°00'2 1.7 1016.6 24.2
2014-Dec-14 22:00S 29°15' E 057°02'0 0.0 1016.8 24.3
2014-Dec-14 21:00S 29°15' E 057°02'2 1.7 1017.5 24.3
2014-Dec-14 20:00S 29°14' E 057°04'0 0.0 1018.5 24.4
2014-Dec-14 19:00S 29°14' E 057°04'1 1.2 1018.0 24.4
2014-Dec-14 18:00S 29°14' E 057°05'1 0.5 1017.2 24.4
2014-Dec-14 17:00S 29°14' E 057°05'2 1.7 1017.9 24.4
2014-Dec-14 16:00S 29°13' E 057°07'1 1.0 1016.4 24.4
2014-Dec-14 15:00S 29°13' E 057°08'0 0.0 1011.5 24.5
2014-Dec-14 14:00S 29°13' E 057°08'1 1.0 1017.1 24.5
2014-Dec-14 13:00S 29°13' E 057°10'0 0.0 1011.2 24.5
2014-Dec-14 12:00S 29°13' E 057°10'0 0.0 1020.7 24.5
2014-Dec-14 11:00S 29°13' E 057°10'0 0.0 1013.1 24.4
2014-Dec-14 10:00S 29°13' E 057°10'2 2.4 1021.1 24.5
2014-Dec-14 09:00S 29°11' E 057°11'0 0.0 1007.6 24.5
2014-Dec-14 06:00S 29°11' E 057°11'1 0.8 1022.1 24.2
2014-Dec-14 05:00S 29°11' E 057°11'1 0.8 1026.7 24.0
2014-Dec-14 04:00S 29°10' E 057°11'1 1.2 1030.0 24.0
2014-Dec-14 03:00S 29°10' E 057°13'0 0.4 1019.3 24.0
2014-Dec-14 02:00S 29°09' E 057°13'1 1.1 1017.7 23.9
2014-Dec-14 00:40S 29°09' E 057°14'1 1.1 1016.2 24.0
2014-Dec-14 00:00S 29°08' E 057°15'14 0.6 1016.0 24.0
2014-Dec-12 23:00S 28°59' E 057°27'1 0.6 1019.3 23.7
2014-Dec-12 21:00S 28°59' E 057°28'3 1.6 1020.6 23.8
2014-Dec-12 19:00S 28°58' E 057°32'0 0.0 1021.1 23.8
2014-Dec-12 18:00S 28°58' E 057°32'9 0.9 1021.0 23.8
2014-Dec-12 08:00S 28°54' E 057°41'1 0.2 1017.3 23.8
2014-Dec-12 05:00S 28°54' E 057°41'2 1.2 1020.6 23.7
2014-Dec-12 03:00S 28°53' E 057°44'1 0.8 1025.1 23.7
2014-Dec-12 02:00S 28°52' E 057°45'0 0.3 1022.5 23.6
2014-Dec-12 01:00S 28°52' E 057°45'1 1.0 1021.8 23.6
2014-Dec-12 00:00S 28°52' E 057°46'5 4.7 1021.4 23.6
2014-Dec-11 23:00S 28°52' E 057°51'0 0.0 1021.6 23.6
2014-Dec-11 21:00S 28°52' E 057°51'1 0.4 1022.7 23.7
2014-Dec-11 18:00S 28°53' E 057°52'2 2.1 1022.9 23.8
2014-Dec-11 17:00S 28°53' E 057°55'0 0.0 1022.0 23.8
2014-Dec-11 15:00S 28°53' E 057°55'1 0.6 1020.5 23.8
2014-Dec-11 14:00S 28°52' E 057°55'1 1.1 1020.0 23.9
2014-Dec-11 13:00S 28°52' E 057°56'0 0.3 1022.2 23.9
2014-Dec-11 12:00S 28°52' E 057°57'3 1.4 1016.9 23.9
2014-Dec-11 10:00S 28°51' E 057°60'0 0.0 1018.1 23.9
2014-Dec-11 08:00S 28°51' E 057°60'2 0.8 1024.4 23.9
2014-Dec-11 06:00S 28°51' E 058°01'1 1.3 1020.4 23.8
2014-Dec-11 05:00S 28°50' E 058°03'0 0.0 1022.9 23.7
2014-Dec-11 04:00S 28°50' E 058°03'3 1.6 1024.9 23.7
2014-Dec-11 02:00S 28°49' E 058°06'1 1.0 1024.7 23.8
2014-Dec-11 01:00S 28°48' E 058°07'1 1.0 1022.1 23.8
2014-Dec-11 00:00S 28°48' E 058°08'0 0.0 1021.5 23.8
2014-Dec-10 23:00S 28°48' E 058°08'3 2.6 1021.7 23.8
2014-Dec-10 22:00S 28°48' E 058°11'1 0.5 1021.9 23.8
2014-Dec-10 20:00S 28°48' E 058°12'1 1.3 1022.1 23.9
2014-Dec-10 19:00S 28°48' E 058°13'0 0.1 1023.1 23.9
2014-Dec-10 18:00S 28°48' E 058°13'0 0.2 1022.7 24.0
2014-Dec-10 17:00S 28°48' E 058°14'1 0.7 1022.4 23.9
2014-Dec-10 15:00S 28°47' E 058°14'0 0.1 1020.0 24.0
2014-Dec-10 14:00S 28°47' E 058°14'1 0.6 1019.5 24.1
2014-Dec-10 13:00S 28°47' E 058°15'0 0.4 1018.1 24.1
2014-Dec-10 12:00S 28°46' E 058°15'1 0.7 1012.8 24.1
2014-Dec-10 10:00S 28°45' E 058°16'3 0.8 1015.0 24.2
2014-Dec-10 06:00S 28°44' E 058°20'0 0.4 1022.6 24.0
2014-Dec-10 05:00S 28°44' E 058°20'1 0.9 1019.9 24.0
2014-Dec-10 04:00S 28°43' E 058°21'2 1.2 1024.6 24.0
2014-Dec-10 02:00S 28°43' E 058°23'   1022.8 24.0
Track history (hours):
 
Tides and Currents Weather Stations Pressure Air Temp Water Temp Dewpoint Dewpoint Depression Visibility Wind Speed Wind Dir Waves Ship Positions

Drifting buoy 16575

Last reported at 2014-Dec-20 02:00 UTC. Time now 2014-Dec-20 04:23 UTC.
Position S 29°18' E 056°22'.

Barometer 1020.8 mb
Water temperature 24.4 ° C

Date/timePositionNaut miles runAvg speedWind from/ knotsBaromVisibWave heightAir tempDewpointWater temp
2014-Dec-20 02:00S 29°18' E 056°22'0 0.4 1020.8 24.4
2014-Dec-20 01:00S 29°18' E 056°23'2 1.6 1015.4 24.4
2014-Dec-20 00:00S 29°18' E 056°24'2 0.9 1015.5 24.4
2014-Dec-19 22:00S 29°18' E 056°26'1 1.0 1015.7 24.4
2014-Dec-19 21:00S 29°18' E 056°28'0 0.0 1016.1 24.5
2014-Dec-19 20:00S 29°18' E 056°28'2 1.0 1016.2 24.5
2014-Dec-19 18:00S 29°19' E 056°29'0 0.4 1016.4 24.7
2014-Dec-19 17:00S 29°20' E 056°30'0 0.1 1015.4 24.8
2014-Dec-19 16:00S 29°20' E 056°30'1 1.4 1012.3 24.8
2014-Dec-19 15:00S 29°20' E 056°31'1 0.6 1006.2 24.8
2014-Dec-19 14:00S 29°21' E 056°32'1 0.7 1012.5 24.8
2014-Dec-19 13:00S 29°21' E 056°32'0 0.2 1002.0 25.0
2014-Dec-19 12:00S 29°21' E 056°32'1 0.5 1014.0 25.0
2014-Dec-19 10:00S 29°21' E 056°33'1 1.1 1016.7 24.9
2014-Dec-19 09:00S 29°22' E 056°32'1 1.3 1016.6 24.8
2014-Dec-19 08:00S 29°21' E 056°32'1 0.5 1014.2 24.7
2014-Dec-19 06:00S 29°20' E 056°32'0 0.5 1018.9 24.4
2014-Dec-19 05:00S 29°20' E 056°32'1 0.8 1018.0 24.4
2014-Dec-19 04:00S 29°20' E 056°33'1 1.2 1016.7 24.3
2014-Dec-19 03:00S 29°20' E 056°34'0 0.3 1023.0 24.2
2014-Dec-19 02:00S 29°20' E 056°34'1 0.5 1022.7 24.1
2014-Dec-19 01:00S 29°19' E 056°34'1 0.9 1013.1 24.1
2014-Dec-19 00:00S 29°19' E 056°35'2 0.8 1013.0 24.2
2014-Dec-18 22:00S 29°19' E 056°37'1 1.0 1013.6 24.2
2014-Dec-18 21:00S 29°19' E 056°38'0 0.5 1014.0 24.2
2014-Dec-18 20:00S 29°19' E 056°38'2 0.8 1014.4 24.3
2014-Dec-18 17:00S 29°21' E 056°41'2 0.7 1013.4 24.4
2014-Dec-18 14:00S 29°22' E 056°43'0 0.4 1007.1 24.7
2014-Dec-18 13:00S 29°22' E 056°43'1 0.8 1010.1 24.7
2014-Dec-18 12:00S 29°23' E 056°43'0 0.1 1008.3 24.8
2014-Dec-18 11:00S 29°23' E 056°43'1 0.5 1013.9 24.8
2014-Dec-18 10:00S 29°23' E 056°43'1 0.5 1010.3 24.8
2014-Dec-18 09:00S 29°22' E 056°43'1 0.3 1014.3 24.7
2014-Dec-18 06:00S 29°22' E 056°44'1 1.1 1020.5 24.4
2014-Dec-18 05:00S 29°21' E 056°44'1 0.5 1010.5 24.3
2014-Dec-18 04:00S 29°21' E 056°44'0 0.0 1016.7 24.3
2014-Dec-18 03:00S 29°21' E 056°44'2 0.9 1019.0 24.2
2014-Dec-18 01:00S 29°20' E 056°45'1 1.3 1011.2 24.2
2014-Dec-18 00:00S 29°19' E 056°47'2 0.9 1011.5 24.2
2014-Dec-17 22:00S 29°19' E 056°49'1 1.1 1011.3 24.2
2014-Dec-17 21:00S 29°19' E 056°50'0 0.1 1012.9 24.3
2014-Dec-17 20:00S 29°19' E 056°50'2 2.1 1012.5 24.3
2014-Dec-17 19:00S 29°20' E 056°52'0 0.3 1013.7 24.3
2014-Dec-17 18:00S 29°20' E 056°52'1 0.8 1013.9 24.4
2014-Dec-17 17:00S 29°21' E 056°52'1 0.9 1013.6 24.4
2014-Dec-17 16:00S 29°22' E 056°52'0 0.3 1013.0 24.4
2014-Dec-17 15:00S 29°22' E 056°52'0 0.4 1012.9 24.4
2014-Dec-17 14:00S 29°23' E 056°52'1 0.6 1011.4 24.4
2014-Dec-17 12:40S 29°23' E 056°51'0 0.5 1013.4 24.4
2014-Dec-17 12:00S 29°23' E 056°51'0 0.0 1009.7 24.5
2014-Dec-17 11:00S 29°23' E 056°51'3 1.5 1011.2 24.6
2014-Dec-17 09:00S 29°20' E 056°52'1 0.3 1008.6 24.7
2014-Dec-17 06:00S 29°20' E 056°53'2 1.6 1013.2 24.4
2014-Dec-17 05:00S 29°19' E 056°55'0 0.0 1020.1 24.4
2014-Dec-17 04:00S 29°19' E 056°55'1 1.3 1020.7 24.4
2014-Dec-17 03:00S 29°19' E 056°56'0 0.4 1016.7 24.4
2014-Dec-17 02:00S 29°19' E 056°57'0 0.5 1016.1 24.4
2014-Dec-17 01:00S 29°19' E 056°57'1 0.7 1013.7 24.4
2014-Dec-17 00:00S 29°19' E 056°58'1 0.7 1013.4 24.4
2014-Dec-16 22:00S 29°19' E 056°60'1 1.2 1014.8 24.4
2014-Dec-16 21:00S 29°20' E 057°01'0 0.2 1015.0 24.4
2014-Dec-16 20:00S 29°20' E 057°01'2 2.1 1015.1 24.4
2014-Dec-16 19:00S 29°22' E 057°02'0 0.0 1015.5 24.4
2014-Dec-16 18:00S 29°22' E 057°02'7 0.4 1015.3 24.4
2014-Dec-15 23:00S 29°22' E 056°55'0 0.0 1016.1 24.2
2014-Dec-15 22:00S 29°22' E 056°55'1 1.2 1016.3 24.2
2014-Dec-15 21:00S 29°22' E 056°56'1 0.8 1016.9 24.2
2014-Dec-15 20:00S 29°22' E 056°56'1 0.4 1017.7 24.2
2014-Dec-15 18:00S 29°23' E 056°57'0 0.0 1017.6 24.3
2014-Dec-15 17:00S 29°23' E 056°57'1 0.6 1017.7 24.3
2014-Dec-15 16:00S 29°23' E 056°57'0 0.0 1016.8 24.3
2014-Dec-15 15:00S 29°23' E 056°57'0 0.0 1015.9 24.4
2014-Dec-15 14:00S 29°23' E 056°57'1 0.8 1014.3 24.4
2014-Dec-15 13:00S 29°24' E 056°56'1 1.0 1013.3 24.4
2014-Dec-15 12:00S 29°24' E 056°55'2 1.6 1013.8 24.4
2014-Dec-15 11:00S 29°23' E 056°54'0 0.0 1014.2 24.3
2014-Dec-15 10:00S 29°23' E 056°54'0 0.0 1014.4 24.3
2014-Dec-15 09:00S 29°23' E 056°54'2 2.4 1016.2 24.2
2014-Dec-15 08:00S 29°20' E 056°54'1 0.4 1019.0 24.2
2014-Dec-15 06:00S 29°20' E 056°55'1 0.6 1023.2 24.0
2014-Dec-15 05:00S 29°19' E 056°55'2 1.6 1018.5 23.9
2014-Dec-15 04:00S 29°18' E 056°56'0 0.0 1016.9 23.9
2014-Dec-15 03:00S 29°18' E 056°56'2 1.6 1016.8 23.9
2014-Dec-15 02:00S 29°17' E 056°57'2 1.7 1016.8 24.0
2014-Dec-15 01:00S 29°16' E 056°59'0 0.0 1015.9 24.0
2014-Dec-15 00:00S 29°16' E 056°59'1 1.2 1016.4 24.2
2014-Dec-14 23:00S 29°16' E 057°00'2 1.7 1016.6 24.2
2014-Dec-14 22:00S 29°15' E 057°02'0 0.0 1016.8 24.3
2014-Dec-14 21:00S 29°15' E 057°02'2 1.7 1017.5 24.3
2014-Dec-14 20:00S 29°14' E 057°04'0 0.0 1018.5 24.4
2014-Dec-14 19:00S 29°14' E 057°04'1 1.2 1018.0 24.4
2014-Dec-14 18:00S 29°14' E 057°05'1 0.5 1017.2 24.4
2014-Dec-14 17:00S 29°14' E 057°05'2 1.7 1017.9 24.4
2014-Dec-14 16:00S 29°13' E 057°07'1 1.0 1016.4 24.4
2014-Dec-14 15:00S 29°13' E 057°08'0 0.0 1011.5 24.5
2014-Dec-14 14:00S 29°13' E 057°08'1 1.0 1017.1 24.5
2014-Dec-14 13:00S 29°13' E 057°10'0 0.0 1011.2 24.5
2014-Dec-14 12:00S 29°13' E 057°10'0 0.0 1020.7 24.5
2014-Dec-14 11:00S 29°13' E 057°10'0 0.0 1013.1 24.4
2014-Dec-14 10:00S 29°13' E 057°10'2 2.4 1021.1 24.5
2014-Dec-14 09:00S 29°11' E 057°11'0 0.0 1007.6 24.5
2014-Dec-14 06:00S 29°11' E 057°11'1 0.8 1022.1 24.2
2014-Dec-14 05:00S 29°11' E 057°11'1 0.8 1026.7 24.0
2014-Dec-14 04:00S 29°10' E 057°11'1 1.2 1030.0 24.0
2014-Dec-14 03:00S 29°10' E 057°13'0 0.4 1019.3 24.0
2014-Dec-14 02:00S 29°09' E 057°13'1 1.1 1017.7 23.9
2014-Dec-14 00:40S 29°09' E 057°14'1 1.1 1016.2 24.0
2014-Dec-14 00:00S 29°08' E 057°15'14 0.6 1016.0 24.0
2014-Dec-12 23:00S 28°59' E 057°27'1 0.6 1019.3 23.7
2014-Dec-12 21:00S 28°59' E 057°28'3 1.6 1020.6 23.8
2014-Dec-12 19:00S 28°58' E 057°32'0 0.0 1021.1 23.8
2014-Dec-12 18:00S 28°58' E 057°32'9 0.9 1021.0 23.8
2014-Dec-12 08:00S 28°54' E 057°41'1 0.2 1017.3 23.8
2014-Dec-12 05:00S 28°54' E 057°41'2 1.2 1020.6 23.7
2014-Dec-12 03:00S 28°53' E 057°44'1 0.8 1025.1 23.7
2014-Dec-12 02:00S 28°52' E 057°45'0 0.3 1022.5 23.6
2014-Dec-12 01:00S 28°52' E 057°45'1 1.0 1021.8 23.6
2014-Dec-12 00:00S 28°52' E 057°46'5 4.7 1021.4 23.6
2014-Dec-11 23:00S 28°52' E 057°51'0 0.0 1021.6 23.6
2014-Dec-11 21:00S 28°52' E 057°51'1 0.4 1022.7 23.7
2014-Dec-11 18:00S 28°53' E 057°52'2 2.1 1022.9 23.8
2014-Dec-11 17:00S 28°53' E 057°55'0 0.0 1022.0 23.8
2014-Dec-11 15:00S 28°53' E 057°55'1 0.6 1020.5 23.8
2014-Dec-11 14:00S 28°52' E 057°55'1 1.1 1020.0 23.9
2014-Dec-11 13:00S 28°52' E 057°56'0 0.3 1022.2 23.9
2014-Dec-11 12:00S 28°52' E 057°57'3 1.4 1016.9 23.9
2014-Dec-11 10:00S 28°51' E 057°60'0 0.0 1018.1 23.9
2014-Dec-11 08:00S 28°51' E 057°60'2 0.8 1024.4 23.9
2014-Dec-11 06:00S 28°51' E 058°01'1 1.3 1020.4 23.8
2014-Dec-11 05:00S 28°50' E 058°03'0 0.0 1022.9 23.7
2014-Dec-11 04:00S 28°50' E 058°03'3 1.6 1024.9 23.7
2014-Dec-11 02:00S 28°49' E 058°06'1 1.0 1024.7 23.8
2014-Dec-11 01:00S 28°48' E 058°07'1 1.0 1022.1 23.8
2014-Dec-11 00:00S 28°48' E 058°08'0 0.0 1021.5 23.8
2014-Dec-10 23:00S 28°48' E 058°08'3 2.6 1021.7 23.8
2014-Dec-10 22:00S 28°48' E 058°11'1 0.5 1021.9 23.8
2014-Dec-10 20:00S 28°48' E 058°12'1 1.3 1022.1 23.9
2014-Dec-10 19:00S 28°48' E 058°13'0 0.1 1023.1 23.9
2014-Dec-10 18:00S 28°48' E 058°13'0 0.2 1022.7 24.0
2014-Dec-10 17:00S 28°48' E 058°14'1 0.7 1022.4 23.9
2014-Dec-10 15:00S 28°47' E 058°14'0 0.1 1020.0 24.0
2014-Dec-10 14:00S 28°47' E 058°14'1 0.6 1019.5 24.1
2014-Dec-10 13:00S 28°47' E 058°15'0 0.4 1018.1 24.1
2014-Dec-10 12:00S 28°46' E 058°15'1 0.7 1012.8 24.1
2014-Dec-10 10:00S 28°45' E 058°16'3 0.8 1015.0 24.2
2014-Dec-10 06:00S 28°44' E 058°20'0 0.4 1022.6 24.0
2014-Dec-10 05:00S 28°44' E 058°20'1 0.9 1019.9 24.0
2014-Dec-10 04:00S 28°43' E 058°21'2 1.2 1024.6 24.0
2014-Dec-10 02:00S 28°43' E 058°23'   1022.8 24.0

Dump ship's entire track history